createdAt,value
2023-05-05T00:00:36.481Z,20.7
2023-05-05T00:20:34.928Z,20.6
2023-05-05T00:40:35.596Z,20.6
2023-05-05T01:00:34.565Z,20.5
2023-05-05T01:20:40.939Z,20.4
2023-05-05T01:40:34.744Z,20.4
2023-05-05T02:00:35.440Z,20.4
2023-05-05T02:20:34.265Z,20.4
2023-05-05T02:40:37.672Z,20.3
2023-05-05T03:00:35.134Z,20.2
2023-05-05T03:20:35.231Z,20.3
2023-05-05T03:40:52.047Z,20.2
2023-05-05T04:00:36.076Z,20.2
2023-05-05T04:20:58.762Z,20.1
2023-05-05T04:40:56.547Z,20.2
2023-05-05T05:00:51.379Z,20.1
2023-05-05T05:20:53.117Z,20.2
2023-05-05T05:40:53.391Z,20.3
2023-05-05T06:00:55.737Z,20.2
2023-05-05T06:20:53.643Z,20.2
2023-05-05T06:40:57.848Z,20.2
2023-05-05T07:00:52.517Z,20.2
2023-05-05T07:20:56.973Z,20.3
2023-05-05T07:40:53.651Z,20.3
2023-05-05T08:00:56.641Z,20.4
2023-05-05T08:20:55.977Z,20.4
2023-05-05T08:40:54.124Z,20.4
2023-05-05T09:00:52.890Z,20.4
2023-05-05T09:20:53.369Z,20.5
2023-05-05T09:40:52.292Z,20.5
2023-05-05T10:01:00.584Z,20.6
2023-05-05T10:20:57.090Z,20.7
2023-05-05T10:40:52.315Z,20.7
2023-05-05T11:00:59.579Z,20.9
2023-05-05T11:20:55.036Z,20.9
2023-05-05T11:40:52.632Z,21
2023-05-05T12:00:52.639Z,21.1
2023-05-05T12:20:52.663Z,21.1
2023-05-05T12:40:53.652Z,21.2
2023-05-05T13:00:54.568Z,21.2
2023-05-05T13:20:52.555Z,21.3
2023-05-05T13:40:59.095Z,21.5
2023-05-05T14:00:53.878Z,21.5
2023-05-05T14:20:51.056Z,21.4
2023-05-05T14:40:51.762Z,21.5
2023-05-05T15:00:52.317Z,21.6
2023-05-05T15:20:55.996Z,21.8
2023-05-05T15:40:56.282Z,21.8
2023-05-05T16:00:53.043Z,21.9
2023-05-05T16:20:53.701Z,22
2023-05-05T16:40:52.919Z,22.2
2023-05-05T17:00:51.539Z,22.3
2023-05-05T17:20:53.623Z,22.3
2023-05-05T17:40:53.772Z,22.3
2023-05-05T18:00:51.073Z,22.3
2023-05-05T18:20:56.458Z,22.2
2023-05-05T18:40:53.954Z,22.2
2023-05-05T19:00:36.368Z,22.2
2023-05-05T19:20:35.481Z,22.3
2023-05-05T19:40:35.656Z,22.2
2023-05-05T20:00:34.725Z,22.1
2023-05-05T20:20:35.869Z,22.1
2023-05-05T20:40:35.256Z,22.1
2023-05-05T21:00:34.904Z,21.4
2023-05-05T21:20:35.612Z,21.6
2023-05-05T21:40:35.770Z,21.7
2023-05-05T22:00:56.558Z,21.7
2023-05-05T22:20:41.753Z,21.7
2023-05-05T22:40:37.851Z,21.6
2023-05-05T23:00:39.269Z,21.5
2023-05-05T23:20:36.793Z,21.5
2023-05-05T23:40:36.718Z,21.5
